Time;durP1;ratioP1;P1;durP2;ratioP2;P2;SDS_P1;SDS_P2;PMS_P1;PMS_P2;Temp;Humidity;BMP_temperature;BMP_pressure;BME280_temperature;BME280_humidity;BME280_pressure;Samples;Min_cycle;Max_cycle;Signal;HPM_P1;HPM_P2
2023/02/24 00:02:49;;;;;;;38.43;32.90;;;8.80;99.90;;;;;;6321429;27;20763;-64
2023/02/24 00:05:53;;;;;;;45.33;34.70;;;8.80;99.90;;;;;;6322023;28;20464;-64
2023/02/24 00:08:56;;;;;;;43.07;36.20;;;8.80;99.90;;;;;;6322938;28;20813;-64
2023/02/24 00:12:01;;;;;;;38.30;30.93;;;8.80;99.90;;;;;;6324338;28;20472;-64
2023/02/24 00:15:05;;;;;;;41.87;33.83;;;8.80;99.90;;;;;;6324275;28;20587;-64
2023/02/24 00:18:09;;;;;;;44.23;34.57;;;8.80;99.90;;;;;;6321473;28;20475;-65
2023/02/24 00:21:15;;;;;;;43.80;34.90;;;8.80;99.90;;;;;;6324397;27;20483;-64
2023/02/24 00:24:27;;;;;;;41.33;34.27;;;8.80;99.90;;;;;;6324109;27;20483;-64
2023/02/24 00:27:31;;;;;;;42.90;32.87;;;8.80;99.90;;;;;;6323795;27;20449;-64
2023/02/24 00:30:34;;;;;;;36.73;32.47;;;8.80;99.90;;;;;;6319398;27;20472;-65
2023/02/24 00:33:39;;;;;;;44.83;32.60;;;8.70;99.90;;;;;;6328268;27;20436;-66
2023/02/24 00:36:42;;;;;;;39.23;34.00;;;8.70;99.90;;;;;;6328596;27;20440;-64
2023/02/24 00:39:45;;;;;;;42.93;32.20;;;8.60;99.90;;;;;;6328482;27;20466;-64
2023/02/24 00:42:48;;;;;;;42.00;33.47;;;8.60;99.90;;;;;;6327755;27;20464;-64
2023/02/24 00:45:52;;;;;;;42.93;33.60;;;8.50;99.90;;;;;;6328932;27;20456;-64
2023/02/24 00:48:56;;;;;;;43.90;33.90;;;8.50;99.90;;;;;;6328496;28;20514;-64
2023/02/24 00:52:03;;;;;;;41.07;34.30;;;8.40;99.90;;;;;;6329171;28;20793;-65
2023/02/24 00:55:12;;;;;;;46.90;34.33;;;8.40;99.90;;;;;;6326301;28;20464;-65
2023/02/24 00:58:18;;;;;;;41.57;33.37;;;8.30;99.90;;;;;;6328735;27;20952;-64
2023/02/24 01:01:23;;;;;;;42.30;32.13;;;8.30;99.90;;;;;;6329179;27;20963;-65
2023/02/24 01:04:28;;;;;;;47.13;34.10;;;8.20;99.90;;;;;;6329081;27;20562;-65
2023/02/24 01:07:31;;;;;;;39.60;34.67;;;8.10;99.90;;;;;;6328618;27;20960;-65
2023/02/24 01:10:35;;;;;;;41.80;33.57;;;8.00;99.90;;;;;;6328874;27;20487;-65
2023/02/24 01:13:37;;;;;;;41.73;34.30;;;8.00;99.90;;;;;;6328642;27;20817;-65
2023/02/24 01:16:43;;;;;;;40.73;34.80;;;8.00;99.90;;;;;;6328623;27;20476;-65
2023/02/24 01:19:49;;;;;;;42.37;33.63;;;8.00;99.90;;;;;;6328703;27;20551;-65
2023/02/24 01:22:53;;;;;;;41.97;37.10;;;8.00;99.90;;;;;;6328707;27;20956;-64
2023/02/24 01:25:58;;;;;;;43.90;33.30;;;7.90;99.90;;;;;;6328159;27;20854;-64
2023/02/24 01:29:02;;;;;;;43.20;34.80;;;7.90;99.90;;;;;;6328320;28;20476;-64
2023/02/24 01:32:05;;;;;;;42.07;33.97;;;7.90;99.90;;;;;;6327380;28;20555;-64
2023/02/24 01:35:13;;;;;;;45.50;35.17;;;7.90;99.90;;;;;;6319085;27;20596;-64
2023/02/24 01:38:21;;;;;;;37.60;32.47;;;7.90;99.90;;;;;;6329060;27;20476;-65
2023/02/24 01:41:26;;;;;;;38.03;31.67;;;7.90;99.90;;;;;;6327919;27;20465;-64
2023/02/24 01:45:13;;;;;;;43.90;33.30;;;7.80;99.90;;;;;;6329054;27;20468;-64
2023/02/24 01:48:16;;;;;;;39.43;32.20;;;7.80;99.90;;;;;;6329218;27;20816;-65
2023/02/24 01:51:21;;;;;;;42.23;35.10;;;7.80;99.90;;;;;;6328310;27;20783;-63
2023/02/24 01:54:29;;;;;;;37.93;30.10;;;7.90;99.90;;;;;;6327813;27;20480;-63
2023/02/24 01:57:38;;;;;;;36.93;30.87;;;7.90;99.90;;;;;;6327385;27;20441;-64
2023/02/24 02:00:45;;;;;;;37.97;33.40;;;7.90;99.90;;;;;;6328299;27;20453;-64
2023/02/24 02:03:50;;;;;;;40.53;31.50;;;7.90;99.90;;;;;;6327274;27;20448;-64
2023/02/24 02:06:56;;;;;;;37.00;32.07;;;7.90;99.90;;;;;;6325113;27;20478;-64
2023/02/24 02:10:02;;;;;;;41.57;33.57;;;7.90;99.90;;;;;;6326675;28;20464;-64
2023/02/24 02:13:06;;;;;;;40.73;35.57;;;7.90;99.90;;;;;;6327055;28;20468;-64
2023/02/24 02:16:24;;;;;;;39.10;31.53;;;7.90;99.90;;;;;;6327651;28;20474;-63
2023/02/24 02:20:05;;;;;;;45.63;36.77;;;7.90;99.90;;;;;;6326881;28;20548;-64
2023/02/24 02:23:27;;;;;;;38.37;32.13;;;7.90;99.90;;;;;;6327220;28;20461;-64
2023/02/24 02:27:07;;;;;;;41.17;33.83;;;7.90;99.90;;;;;;6326735;28;20464;-64
2023/02/24 02:30:30;;;;;;;36.77;31.20;;;7.90;99.90;;;;;;6304648;28;20824;-64
2023/02/24 02:34:15;;;;;;;39.97;31.47;;;7.90;99.90;;;;;;6326507;27;20451;-64
2023/02/24 02:37:27;;;;;;;44.33;32.93;;;7.90;99.90;;;;;;6315743;27;20467;-64
2023/02/24 02:40:36;;;;;;;38.53;32.80;;;7.90;99.90;;;;;;6326483;27;20482;-64
2023/02/24 02:43:47;;;;;;;42.67;31.40;;;7.90;99.90;;;;;;6326720;27;20465;-64
2023/02/24 02:46:58;;;;;;;40.20;33.60;;;8.00;99.90;;;;;;6326618;27;20537;-64
2023/02/24 02:50:08;;;;;;;42.87;33.47;;;8.00;99.90;;;;;;6327969;27;20811;-64
2023/02/24 02:53:18;;;;;;;42.80;36.50;;;7.90;99.90;;;;;;6327398;27;20472;-64
2023/02/24 02:56:25;;;;;;;44.47;37.93;;;7.90;99.90;;;;;;6326846;27;20475;-65
2023/02/24 02:59:32;;;;;;;54.97;35.83;;;7.80;99.90;;;;;;6326572;27;20480;-64
2023/02/24 03:02:40;;;;;;;44.13;37.47;;;7.70;99.90;;;;;;6326361;27;20464;-64
2023/02/24 03:05:49;;;;;;;42.23;35.77;;;7.70;99.90;;;;;;6326301;27;20464;-64
2023/02/24 03:08:58;;;;;;;43.73;35.90;;;7.70;99.90;;;;;;6326378;27;20483;-64
2023/02/24 03:12:07;;;;;;;40.70;35.80;;;7.70;99.90;;;;;;6325729;27;20472;-64
2023/02/24 03:15:12;;;;;;;42.53;35.27;;;7.70;99.90;;;;;;6325088;27;20472;-64
2023/02/24 03:18:19;;;;;;;49.10;36.43;;;7.80;99.90;;;;;;6324530;27;20953;-65
2023/02/24 03:21:31;;;;;;;44.30;33.40;;;7.80;99.90;;;;;;6324928;27;20803;-64
2023/02/24 03:24:37;;;;;;;38.50;31.77;;;7.80;99.90;;;;;;6324283;27;20487;-64
2023/02/24 03:27:47;;;;;;;41.23;31.23;;;7.90;99.90;;;;;;6324672;27;20417;-64
2023/02/24 03:30:58;;;;;;;38.27;31.70;;;7.90;99.90;;;;;;6321871;28;20547;-64
2023/02/24 03:34:07;;;;;;;38.00;32.10;;;7.90;99.90;;;;;;6327089;27;20948;-64
2023/02/24 03:37:12;;;;;;;37.33;29.83;;;7.90;99.90;;;;;;6329098;27;20483;-64
2023/02/24 03:40:43;;;;;;;35.50;31.60;;;8.00;99.90;;;;;;6324893;27;20483;-64
2023/02/24 03:43:50;;;;;;;41.90;34.40;;;7.90;99.90;;;;;;6324582;27;20476;-64
2023/02/24 03:46:54;;;;;;;43.23;33.60;;;7.90;99.90;;;;;;6324662;27;20499;-64
2023/02/24 03:49:57;;;;;;;38.87;32.60;;;7.80;99.90;;;;;;6324154;27;20787;-64
2023/02/24 03:53:21;;;;;;;40.90;33.40;;;7.90;99.90;;;;;;6324322;27;20932;-64
2023/02/24 03:56:39;;;;;;;44.27;33.90;;;7.90;99.90;;;;;;6324513;27;20554;-64
2023/02/24 03:59:51;;;;;;;39.03;31.53;;;7.90;99.90;;;;;;6323979;27;20591;-64
2023/02/24 04:03:02;;;;;;;39.30;35.00;;;7.90;99.90;;;;;;6323995;27;20475;-64
2023/02/24 04:06:12;;;;;;;43.00;35.70;;;7.90;99.90;;;;;;6324670;28;20487;-65
2023/02/24 04:09:22;;;;;;;45.97;37.30;;;7.80;99.90;;;;;;6328454;28;20969;-65
2023/02/24 04:12:30;;;;;;;43.87;35.13;;;7.90;99.90;;;;;;6329345;28;20476;-65
2023/02/24 04:15:39;;;;;;;39.43;33.67;;;7.80;99.90;;;;;;6329364;28;20449;-64
2023/02/24 04:18:48;;;;;;;48.43;36.77;;;7.90;99.90;;;;;;6329484;28;20996;-64
2023/02/24 04:21:51;;;;;;;44.60;35.87;;;7.90;99.90;;;;;;6329490;28;20448;-64
2023/02/24 04:24:59;;;;;;;47.27;37.03;;;7.90;99.90;;;;;;6328356;28;20512;-64
2023/02/24 04:28:03;;;;;;;47.33;36.90;;;7.80;99.90;;;;;;6328852;28;20466;-64
2023/02/24 04:31:17;;;;;;;41.47;35.93;;;7.80;99.90;;;;;;6329012;27;20483;-64
2023/02/24 04:34:20;;;;;;;48.80;38.23;;;7.80;99.90;;;;;;6328551;27;20460;-64
2023/02/24 04:37:30;;;;;;;44.30;35.90;;;7.80;99.90;;;;;;6328553;27;20825;-64
2023/02/24 04:40:36;;;;;;;46.20;38.50;;;7.70;99.90;;;;;;6328580;27;20479;-64
2023/02/24 04:43:39;;;;;;;43.80;36.00;;;7.70;99.90;;;;;;6324278;27;20479;-65
2023/02/24 04:46:43;;;;;;;43.97;35.60;;;7.70;99.90;;;;;;6328842;27;20476;-64
2023/02/24 04:49:46;;;;;;;44.77;35.70;;;7.70;99.90;;;;;;6340094;27;20474;-65
2023/02/24 04:52:50;;;;;;;44.77;36.30;;;7.70;99.90;;;;;;6348708;27;20475;-65
2023/02/24 04:55:56;;;;;;;44.53;35.90;;;7.70;99.90;;;;;;6329475;27;20480;-64
2023/02/24 04:58:59;;;;;;;47.83;40.20;;;7.70;99.90;;;;;;6328730;27;20476;-64
2023/02/24 05:02:02;;;;;;;52.93;38.57;;;7.60;99.90;;;;;;6327798;27;20460;-64
2023/02/24 05:05:08;;;;;;;50.83;38.03;;;7.60;99.90;;;;;;6327730;27;20472;-65
2023/02/24 05:08:14;;;;;;;50.53;39.47;;;7.60;99.90;;;;;;6328158;28;20485;-65
2023/02/24 05:11:19;;;;;;;50.60;37.63;;;7.50;99.90;;;;;;6327922;28;20791;-64
2023/02/24 05:14:23;;;;;;;54.50;38.53;;;7.50;99.90;;;;;;6327598;28;20468;-64
2023/02/24 05:17:27;;;;;;;48.33;37.43;;;7.40;99.90;;;;;;6327801;28;20475;-64
2023/02/24 05:23:53;;;;;;;46.10;39.17;;;7.40;99.90;;;;;;6327578;28;20468;-64
2023/02/24 05:26:58;;;;;;;48.17;39.30;;;7.30;99.90;;;;;;6327785;28;20940;-64
2023/02/24 05:30:02;;;;;;;50.50;40.67;;;7.30;99.90;;;;;;6327560;27;20472;-64
2023/02/24 05:33:07;;;;;;;43.57;36.90;;;7.20;99.90;;;;;;6327317;27;20831;-64
2023/02/24 05:36:14;;;;;;;47.17;38.77;;;7.30;99.90;;;;;;6327516;27;20469;-64
2023/02/24 05:39:19;;;;;;;48.47;37.20;;;7.30;99.90;;;;;;6330834;27;20480;-64
2023/02/24 05:42:23;;;;;;;47.70;38.27;;;7.20;99.90;;;;;;6336508;27;20968;-64
2023/02/24 05:45:29;;;;;;;46.83;39.60;;;7.20;99.90;;;;;;6327549;27;20468;-64
2023/02/24 05:48:33;;;;;;;47.60;36.13;;;7.10;99.90;;;;;;6327195;27;20453;-63
2023/02/24 05:51:42;;;;;;;50.27;38.70;;;7.00;99.90;;;;;;6326989;27;20450;-64
2023/02/24 05:54:47;;;;;;;50.40;37.17;;;7.10;99.90;;;;;;6327093;27;20465;-63
2023/02/24 05:57:52;;;;;;;53.03;38.87;;;7.10;99.90;;;;;;6326632;27;20467;-63
2023/02/24 06:00:57;;;;;;;50.23;39.47;;;7.00;99.90;;;;;;6326528;27;20469;-63
2023/02/24 06:04:04;;;;;;;44.47;37.30;;;7.10;99.90;;;;;;6326540;27;20479;-63
2023/02/24 06:07:13;;;;;;;47.70;39.70;;;7.10;99.90;;;;;;6327027;27;20480;-63
2023/02/24 06:10:17;;;;;;;52.67;39.10;;;7.10;99.90;;;;;;6326313;27;20487;-63
2023/02/24 06:13:21;;;;;;;45.60;37.60;;;7.20;99.90;;;;;;6326340;27;20476;-63
2023/02/24 06:16:25;;;;;;;47.23;36.97;;;7.20;99.90;;;;;;6326150;27;20484;-63
2023/02/24 06:19:30;;;;;;;45.03;37.63;;;7.20;99.90;;;;;;6326283;27;20574;-64
2023/02/24 06:22:41;;;;;;;44.43;36.30;;;7.10;99.90;;;;;;6326173;27;21227;-63
2023/02/24 06:25:44;;;;;;;41.50;36.93;;;7.10;99.90;;;;;;6326274;27;20473;-63
2023/02/24 06:28:53;;;;;;;49.40;39.20;;;7.20;99.90;;;;;;6326116;28;20828;-63
2023/02/24 06:31:57;;;;;;;46.73;37.57;;;7.30;99.90;;;;;;6325717;28;20464;-64
2023/02/24 06:35:01;;;;;;;47.63;38.17;;;7.40;99.90;;;;;;6325642;27;20472;-65
2023/02/24 06:38:04;;;;;;;41.13;33.90;;;7.50;99.90;;;;;;6326146;27;20770;-64
2023/02/24 06:41:10;;;;;;;47.83;36.40;;;7.60;99.90;;;;;;6325982;27;20472;-65
2023/02/24 06:44:15;;;;;;;53.60;38.20;;;7.70;99.90;;;;;;6325949;27;20792;-64
2023/02/24 06:47:18;;;;;;;51.20;37.10;;;7.70;99.90;;;;;;6325703;27;20483;-64
2023/02/24 06:50:22;;;;;;;47.27;37.50;;;7.70;99.90;;;;;;6325550;27;20499;-64
2023/02/24 06:53:25;;;;;;;45.50;36.03;;;7.80;99.90;;;;;;6325649;27;20482;-65
2023/02/24 06:56:28;;;;;;;46.30;36.53;;;7.80;99.90;;;;;;6325417;27;20920;-64
2023/02/24 06:59:36;;;;;;;42.57;35.97;;;7.90;99.90;;;;;;6325466;27;20492;-64
2023/02/24 07:02:39;;;;;;;47.33;36.70;;;8.00;99.90;;;;;;6325329;27;20975;-64
2023/02/24 07:05:48;;;;;;;47.60;38.60;;;8.10;99.90;;;;;;6325433;27;20475;-64
2023/02/24 07:08:52;;;;;;;48.50;38.93;;;8.20;99.90;;;;;;6325231;27;20944;-64
2023/02/24 07:11:57;;;;;;;42.20;35.90;;;8.30;99.90;;;;;;6326265;27;20483;-64
2023/02/24 07:15:02;;;;;;;48.40;38.30;;;8.40;99.90;;;;;;6325173;27;20477;-65
2023/02/24 07:18:13;;;;;;;44.83;35.97;;;8.50;99.90;;;;;;6324774;27;20797;-64
2023/02/24 07:21:22;;;;;;;49.63;38.10;;;8.70;99.90;;;;;;6325085;27;20472;-64
2023/02/24 07:24:31;;;;;;;48.73;38.87;;;8.80;99.90;;;;;;6324682;27;20799;-64
2023/02/24 07:27:36;;;;;;;46.97;37.50;;;8.90;99.90;;;;;;6324878;27;20432;-64
2023/02/24 07:30:41;;;;;;;46.23;37.03;;;9.00;99.90;;;;;;6324632;28;20460;-64
2023/02/24 07:33:45;;;;;;;48.40;36.13;;;9.10;99.90;;;;;;6324423;27;20503;-65
2023/02/24 07:36:49;;;;;;;45.90;37.10;;;9.20;99.90;;;;;;6324685;27;20464;-65
2023/02/24 07:39:52;;;;;;;41.30;35.90;;;9.20;99.90;;;;;;6323932;27;20467;-65
2023/02/24 07:42:56;;;;;;;45.20;37.53;;;9.40;99.90;;;;;;6323611;27;20461;-65
2023/02/24 07:46:07;;;;;;;49.40;37.00;;;9.40;99.90;;;;;;6330000;27;20460;-65
2023/02/24 07:49:14;;;;;;;44.47;36.43;;;9.50;99.90;;;;;;6330813;27;20477;-65
2023/02/24 07:52:17;;;;;;;43.90;36.80;;;9.50;99.90;;;;;;6324180;27;20472;-64
2023/02/24 07:55:22;;;;;;;41.30;35.30;;;9.50;99.90;;;;;;6314433;27;20472;-64
2023/02/24 07:58:27;;;;;;;45.53;36.73;;;9.50;99.90;;;;;;6323216;28;20948;-65
2023/02/24 08:01:37;;;;;;;45.90;36.60;;;9.60;99.90;;;;;;6323596;27;20468;-65
2023/02/24 08:04:47;;;;;;;48.13;37.50;;;9.60;99.90;;;;;;6321498;27;20460;-64
2023/02/24 08:07:51;;;;;;;45.50;35.80;;;9.70;99.90;;;;;;6324184;27;20819;-65
2023/02/24 08:11:02;;;;;;;45.60;37.00;;;9.80;99.90;;;;;;6321868;27;20487;-63
2023/02/24 08:14:09;;;;;;;40.53;34.67;;;10.00;99.90;;;;;;6312910;28;20498;-63
2023/02/24 08:17:18;;;;;;;41.43;34.97;;;10.20;99.90;;;;;;6305626;28;20981;-64
2023/02/24 08:20:23;;;;;;;40.40;33.40;;;10.40;99.90;;;;;;6306626;28;20496;-64
2023/02/24 08:23:27;;;;;;;42.07;31.60;;;10.60;99.90;;;;;;6320756;27;20464;-63
2023/02/24 08:26:30;;;;;;;45.37;32.90;;;10.90;99.90;;;;;;6322802;28;20476;-63
2023/02/24 08:29:39;;;;;;;37.43;31.83;;;11.20;99.90;;;;;;6322664;27;20808;-63
2023/02/24 08:32:45;;;;;;;42.20;32.10;;;11.50;99.90;;;;;;6322934;27;20475;-63
2023/02/24 08:35:59;;;;;;;32.87;29.27;;;12.00;99.60;;;;;;6322890;27;20488;-63
2023/02/24 08:39:04;;;;;;;34.20;29.57;;;13.40;98.30;;;;;;6322948;27;20550;-63
2023/02/24 08:42:13;;;;;;;35.67;31.77;;;16.20;95.20;;;;;;6320435;28;20802;-63
2023/02/24 08:45:16;;;;;;;31.83;28.10;;;18.70;87.70;;;;;;6323211;28;20464;-63
2023/02/24 08:48:31;;;;;;;35.10;31.40;;;20.40;73.40;;;;;;6323161;27;20476;-64
2023/02/24 08:51:35;;;;;;;32.60;29.10;;;21.30;64.60;;;;;;6323416;27;20206;-63
2023/02/24 08:54:46;;;;;;;35.23;31.77;;;21.80;58.30;;;;;;6325853;28;20223;-63
2023/02/24 08:57:50;;;;;;;32.17;29.00;;;22.30;54.50;;;;;;6323290;28;20245;-64
2023/02/24 09:00:58;;;;;;;33.73;30.47;;;23.20;53.60;;;;;;6328074;28;20291;-63
2023/02/24 09:04:06;;;;;;;33.03;29.57;;;24.60;49.60;;;;;;6328599;28;20268;-63
2023/02/24 09:07:14;;;;;;;33.90;30.83;;;25.40;44.80;;;;;;6328152;28;20229;-63
2023/02/24 09:10:18;;;;;;;31.40;28.20;;;25.80;42.00;;;;;;6328311;28;20430;-64
2023/02/24 09:13:22;;;;;;;36.97;33.30;;;26.20;40.30;;;;;;6327772;27;20232;-64
2023/02/24 09:16:25;;;;;;;36.80;33.50;;;27.10;38.90;;;;;;6327453;27;20226;-63
2023/02/24 09:20:14;;;;;;;34.80;31.40;;;27.80;36.40;;;;;;6324201;27;20218;-63
2023/02/24 09:23:06;;;;;;;34.37;31.27;;;28.60;34.20;;;;;;6302237;28;20364;-64
2023/02/24 09:26:09;;;;;;;31.27;28.07;;;29.60;32.50;;;;;;6304436;28;20296;-64
2023/02/24 09:32:33;;;;;;;33.43;30.00;;;30.40;29.10;;;;;;6326950;28;20225;-63
2023/02/24 09:35:40;;;;;;;32.67;29.80;;;29.10;29.80;;;;;;6328136;28;20355;-63
2023/02/24 09:42:31;;;;;;;35.43;31.80;;;27.40;31.80;;;;;;6327515;28;20286;-63
2023/02/24 09:45:39;;;;;;;32.00;29.10;;;27.20;32.70;;;;;;6327231;28;20210;-63
2023/02/24 09:48:50;;;;;;;32.63;28.97;;;28.10;31.20;;;;;;6329637;28;20696;-63
2023/02/24 09:52:07;;;;;;;30.17;27.47;;;28.50;30.30;;;;;;6334657;28;20233;-63
2023/02/24 09:55:24;;;;;;;30.93;27.93;;;28.80;29.80;;;;;;6327167;28;20230;-62
2023/02/24 09:58:38;;;;;;;31.13;28.13;;;28.90;29.70;;;;;;6327315;28;20225;-63
2023/02/24 10:01:51;;;;;;;30.33;27.10;;;28.50;29.80;;;;;;6326774;28;20229;-62
2023/02/24 10:05:05;;;;;;;29.53;26.83;;;28.90;29.40;;;;;;6326035;28;20300;-63
2023/02/24 10:08:16;;;;;;;26.03;23.43;;;29.60;28.90;;;;;;6326708;28;20588;-63
2023/02/24 10:11:31;;;;;;;27.13;24.73;;;30.40;28.40;;;;;;6326766;28;20213;-63
2023/02/24 10:14:42;;;;;;;24.88;22.63;;;31.80;26.90;;;;;;6326126;27;20587;-62
2023/02/24 10:17:56;;;;;;;23.08;21.23;;;33.30;25.10;;;;;;6326376;27;20230;-64
2023/02/24 10:21:14;;;;;;;21.08;19.38;;;35.30;23.80;;;;;;6310045;27;20243;-64
2023/02/24 10:24:28;;;;;;;22.65;20.77;;;36.50;21.60;;;;;;6300974;28;20351;-64
2023/02/24 10:27:35;;;;;;;22.65;20.70;;;37.50;20.90;;;;;;6314508;28;20727;-64
2023/02/24 10:30:47;;;;;;;24.02;21.83;;;38.20;19.90;;;;;;6325764;28;20698;-63
2023/02/24 10:33:55;;;;;;;24.83;22.30;;;39.10;18.90;;;;;;6325929;28;20233;-63
2023/02/24 10:37:05;;;;;;;24.25;22.25;;;39.10;18.80;;;;;;6326309;28;20226;-62
2023/02/24 10:40:16;;;;;;;22.05;20.20;;;37.70;18.30;;;;;;6325646;28;20692;-62
2023/02/24 10:43:28;;;;;;;23.20;20.95;;;36.40;19.00;;;;;;6325770;28;20240;-64
2023/02/24 10:46:33;;;;;;;20.85;19.08;;;34.90;20.00;;;;;;6326085;28;20233;-63
2023/02/24 10:49:56;;;;;;;20.95;19.13;;;33.50;20.90;;;;;;6325403;28;20622;-63
2023/02/24 10:53:25;;;;;;;21.17;19.00;;;31.40;22.40;;;;;;6325784;28;20354;-63
2023/02/24 10:56:40;;;;;;;20.33;18.43;;;29.30;24.00;;;;;;6327381;28;20243;-63
2023/02/24 11:03:13;;;;;;;19.53;17.70;;;25.50;28.10;;;;;;6325883;28;20228;-62
2023/02/24 11:06:41;;;;;;;20.77;17.60;;;24.60;29.40;;;;;;6325342;28;20355;-62
2023/02/24 11:09:50;;;;;;;21.47;19.20;;;24.20;30.00;;;;;;6301884;28;20308;-61
2023/02/24 11:19:43;;;;;;;19.00;16.67;;;22.00;33.20;;;;;;6294533;28;20530;-62
2023/02/24 11:22:50;;;;;;;17.60;15.80;;;21.60;33.60;;;;;;6275444;28;20236;-63
2023/02/24 11:25:59;;;;;;;21.50;18.43;;;21.70;33.40;;;;;;6275100;28;20223;-60
2023/02/24 11:29:23;;;;;;;21.00;16.97;;;21.30;34.30;;;;;;6313082;28;20242;-62
2023/02/24 11:32:41;;;;;;;17.20;15.53;;;21.30;34.50;;;;;;6306432;28;20559;-62
2023/02/24 11:35:56;;;;;;;18.27;16.60;;;22.10;34.20;;;;;;6297781;28;20268;-62
2023/02/24 11:39:13;;;;;;;16.93;15.13;;;24.20;31.80;;;;;;6296118;28;20235;-62
2023/02/24 11:42:26;;;;;;;17.90;16.00;;;25.10;30.00;;;;;;6296480;28;20625;-62
2023/02/24 11:45:36;;;;;;;20.77;16.80;;;27.40;27.80;;;;;;6300072;28;20646;-63
2023/02/24 11:48:43;;;;;;;17.37;15.70;;;30.50;25.40;;;;;;6299521;28;20226;-63
2023/02/24 11:51:46;;;;;;;16.95;15.38;;;33.10;23.20;;;;;;6309410;28;20217;-63
2023/02/24 11:54:54;;;;;;;18.27;16.67;;;35.00;21.00;;;;;;6305421;28;20693;-63
2023/02/24 11:58:01;;;;;;;18.75;17.23;;;36.30;19.90;;;;;;6300641;28;20222;-62
2023/02/24 12:01:13;;;;;;;17.63;16.13;;;36.50;18.70;;;;;;6299425;28;20237;-62
2023/02/24 12:04:20;;;;;;;16.58;15.15;;;37.00;18.50;;;;;;6298487;28;20222;-62
2023/02/24 12:07:29;;;;;;;19.33;17.63;;;36.50;18.40;;;;;;6298137;28;20247;-62
2023/02/24 12:10:35;;;;;;;18.90;17.40;;;36.90;18.40;;;;;;6294523;28;20249;-62
2023/02/24 12:13:45;;;;;;;18.85;17.20;;;37.10;18.50;;;;;;6298840;28;20236;-62
2023/02/24 12:16:58;;;;;;;19.27;17.67;;;38.10;17.90;;;;;;6298946;28;20262;-62
2023/02/24 12:20:05;;;;;;;18.40;16.90;;;39.50;17.10;;;;;;6290862;28;20616;-63
2023/02/24 12:23:16;;;;;;;18.17;16.45;;;40.70;16.30;;;;;;6273741;28;20677;-62
2023/02/24 12:26:23;;;;;;;16.95;15.55;;;40.30;15.50;;;;;;6277391;28;20803;-62
2023/02/24 12:29:53;;;;;;;17.70;15.98;;;38.90;16.20;;;;;;6300452;28;20653;-62
2023/02/24 12:33:09;;;;;;;17.10;15.65;;;38.30;16.50;;;;;;6296512;28;20560;-63
2023/02/24 12:36:25;;;;;;;16.17;14.80;;;38.10;16.70;;;;;;6303595;28;20238;-63
2023/02/24 12:39:40;;;;;;;17.50;15.95;;;36.90;17.20;;;;;;6303009;28;20360;-63
2023/02/24 12:42:51;;;;;;;17.33;15.82;;;34.40;18.90;;;;;;6301323;28;20193;-62
2023/02/24 12:46:03;;;;;;;17.52;15.90;;;34.20;19.00;;;;;;6302520;28;20563;-62
2023/02/24 12:49:27;;;;;;;17.80;16.20;;;31.70;20.70;;;;;;6298988;28;20230;-62
2023/02/24 12:52:39;;;;;;;16.38;14.88;;;30.20;22.20;;;;;;6301876;28;20240;-63
2023/02/24 12:55:51;;;;;;;17.15;15.55;;;31.00;21.90;;;;;;6300794;28;20238;-63
2023/02/24 12:59:01;;;;;;;16.23;14.82;;;32.60;20.70;;;;;;6302496;28;20567;-63
2023/02/24 13:02:12;;;;;;;16.27;14.70;;;33.60;19.70;;;;;;6307068;28;20223;-63
2023/02/24 13:05:22;;;;;;;15.55;14.23;;;34.90;18.80;;;;;;6303097;28;20601;-63
2023/02/24 13:08:37;;;;;;;16.85;15.45;;;36.50;18.10;;;;;;6302467;28;20231;-63
2023/02/24 13:11:46;;;;;;;17.60;16.10;;;36.20;17.70;;;;;;6300915;28;20225;-63
2023/02/24 13:14:50;;;;;;;16.65;15.15;;;35.70;18.20;;;;;;6302727;28;20237;-63
2023/02/24 13:17:54;;;;;;;16.65;15.23;;;35.90;18.00;;;;;;6302272;28;20247;-64
2023/02/24 13:21:08;;;;;;;17.30;15.77;;;37.00;17.40;;;;;;6302319;28;20227;-64
2023/02/24 13:24:21;;;;;;;18.30;16.63;;;37.70;16.60;;;;;;6302695;28;20242;-64
2023/02/24 13:27:27;;;;;;;18.45;16.67;;;36.90;17.30;;;;;;6301996;28;20697;-64
2023/02/24 13:30:40;;;;;;;18.27;16.45;;;37.30;17.20;;;;;;6301811;28;20235;-65
2023/02/24 13:33:47;;;;;;;17.90;16.40;;;36.20;17.30;;;;;;6304051;27;20307;-64
2023/02/24 13:36:52;;;;;;;19.35;17.42;;;35.00;18.00;;;;;;6325225;28;20212;-64
2023/02/24 13:39:55;;;;;;;19.58;17.67;;;34.90;18.20;;;;;;6300578;28;20316;-65
2023/02/24 13:43:03;;;;;;;19.20;17.27;;;33.30;19.60;;;;;;6302195;28;20226;-64
2023/02/24 13:46:19;;;;;;;18.30;16.60;;;32.80;20.20;;;;;;6302482;28;20226;-63
2023/02/24 13:49:34;;;;;;;19.02;17.13;;;33.00;20.10;;;;;;6302476;28;20230;-64
2023/02/24 13:52:53;;;;;;;19.05;17.15;;;33.90;19.40;;;;;;6302672;28;20223;-64
2023/02/24 13:56:14;;;;;;;17.00;15.30;;;33.30;19.60;;;;;;6303697;28;20230;-63
2023/02/24 13:59:36;;;;;;;16.00;14.40;;;32.70;20.20;;;;;;6305125;28;20238;-64
2023/02/24 14:02:42;;;;;;;17.48;15.68;;;32.10;20.10;;;;;;6301950;28;20521;-63
2023/02/24 14:05:47;;;;;;;18.57;16.33;;;29.90;21.90;;;;;;6301971;28;20241;-62
2023/02/24 14:08:56;;;;;;;17.83;15.93;;;28.80;22.60;;;;;;6304537;28;20231;-63
2023/02/24 14:12:02;;;;;;;16.30;14.67;;;27.70;23.40;;;;;;6303175;28;20226;-63
2023/02/24 14:15:11;;;;;;;15.60;13.90;;;25.60;25.00;;;;;;6313904;28;20241;-63
2023/02/24 14:18:20;;;;;;;16.33;13.90;;;23.70;26.80;;;;;;6301594;28;20383;-63
2023/02/24 14:21:24;;;;;;;16.67;14.23;;;22.80;28.00;;;;;;6277573;28;20231;-62
2023/02/24 14:24:29;;;;;;;16.70;12.70;;;21.90;28.50;;;;;;6275936;28;20247;-64
2023/02/24 14:27:33;;;;;;;14.53;11.77;;;21.20;29.00;;;;;;6289657;28;20211;-63
2023/02/24 14:30:38;;;;;;;13.90;11.70;;;21.00;29.50;;;;;;6300902;28;20237;-63
2023/02/24 14:33:44;;;;;;;17.63;13.03;;;20.70;29.80;;;;;;6301087;28;20198;-62
2023/02/24 14:36:49;;;;;;;16.47;13.80;;;20.40;30.00;;;;;;6301262;28;20234;-63
2023/02/24 14:39:56;;;;;;;14.60;13.10;;;20.00;30.00;;;;;;6301153;28;20238;-63
2023/02/24 14:42:59;;;;;;;15.40;11.27;;;19.80;30.60;;;;;;6300565;28;20223;-62
2023/02/24 14:46:06;;;;;;;13.23;11.23;;;19.50;31.00;;;;;;6300218;28;20238;-62
2023/02/24 14:49:19;;;;;;;16.40;11.50;;;19.50;31.60;;;;;;6304845;28;20243;-62
2023/02/24 14:52:34;;;;;;;17.07;11.87;;;19.20;32.50;;;;;;6324581;28;20214;-62
2023/02/24 14:55:41;;;;;;;17.07;12.17;;;19.10;32.80;;;;;;6324491;28;20226;-61
2023/02/24 14:58:50;;;;;;;19.63;13.10;;;19.10;32.70;;;;;;6324548;28;20312;-62
2023/02/24 15:01:56;;;;;;;17.17;12.10;;;18.90;32.50;;;;;;6324469;28;20218;-61
2023/02/24 15:05:00;;;;;;;69.97;44.17;;;18.40;32.80;;;;;;6324141;28;20551;-61
2023/02/24 15:08:04;;;;;;;15.93;11.80;;;18.20;33.30;;;;;;6324570;28;20693;-61
2023/02/24 15:11:18;;;;;;;14.67;11.23;;;18.00;33.40;;;;;;6323621;28;20234;-61
2023/02/24 15:14:24;;;;;;;15.63;11.23;;;17.80;33.80;;;;;;6324122;28;20233;-62
2023/02/24 15:17:28;;;;;;;15.40;10.90;;;17.50;34.10;;;;;;6322868;28;20226;-62
2023/02/24 15:20:33;;;;;;;21.13;12.20;;;17.40;34.90;;;;;;6323767;28;20682;-62
2023/02/24 15:23:38;;;;;;;20.60;12.73;;;17.30;35.20;;;;;;6322893;28;20214;-62
2023/02/24 15:26:51;;;;;;;18.07;12.40;;;17.10;35.40;;;;;;6321695;28;20952;-61
2023/02/24 15:30:01;;;;;;;17.17;11.40;;;16.90;36.30;;;;;;6320636;28;20242;-62
2023/02/24 15:33:12;;;;;;;15.83;11.83;;;16.80;36.70;;;;;;6323916;28;20473;-62
2023/02/24 15:36:20;;;;;;;14.77;11.20;;;16.70;36.60;;;;;;6323464;28;20465;-61
2023/02/24 15:39:27;;;;;;;16.17;12.00;;;16.60;36.90;;;;;;6321977;28;20476;-63
2023/02/24 15:42:35;;;;;;;17.23;11.07;;;16.40;36.90;;;;;;6323961;28;20475;-61
2023/02/24 15:45:39;;;;;;;13.23;11.23;;;16.40;37.40;;;;;;6324715;28;20461;-62
2023/02/24 15:48:45;;;;;;;17.57;11.83;;;16.30;38.20;;;;;;6324367;28;20464;-62
2023/02/24 15:51:50;;;;;;;18.47;12.80;;;16.20;38.00;;;;;;6325098;28;20440;-62
2023/02/24 15:54:54;;;;;;;20.80;13.87;;;16.00;38.40;;;;;;6323098;28;20456;-62
2023/02/24 15:58:01;;;;;;;17.10;12.70;;;15.90;39.10;;;;;;6321673;28;20467;-62
2023/02/24 16:01:05;;;;;;;17.20;12.67;;;15.80;39.10;;;;;;6324082;28;20479;-62
2023/02/24 16:04:09;;;;;;;17.80;12.70;;;15.70;39.60;;;;;;6324323;28;20606;-62
2023/02/24 16:07:17;;;;;;;19.27;13.60;;;15.60;40.00;;;;;;6324399;28;20475;-62
2023/02/24 16:10:23;;;;;;;18.40;13.17;;;15.50;40.50;;;;;;6324504;28;20482;-62
2023/02/24 16:13:29;;;;;;;15.00;11.63;;;15.40;40.30;;;;;;6311247;28;20965;-62
2023/02/24 16:16:33;;;;;;;18.27;12.93;;;15.30;40.50;;;;;;6299274;28;20488;-62
2023/02/24 16:19:37;;;;;;;24.40;13.53;;;15.20;40.90;;;;;;6303220;28;20472;-62
2023/02/24 16:22:40;;;;;;;19.60;14.63;;;15.10;41.00;;;;;;6324541;28;20464;-62
2023/02/24 16:25:45;;;;;;;28.83;19.47;;;15.00;41.50;;;;;;6323534;28;20951;-62